sensor_id;sensor_type;location;lat;lon;timestamp;temperature;humidity
2497;DHT22;1259;48.306;14.374;2023-08-08T00:00:01;11.60;99.90
2497;DHT22;1259;48.306;14.374;2023-08-08T00:02:28;11.60;99.90
2497;DHT22;1259;48.306;14.374;2023-08-08T00:04:55;11.60;99.90
2497;DHT22;1259;48.306;14.374;2023-08-08T00:07:22;11.60;99.90
2497;DHT22;1259;48.306;14.374;2023-08-08T00:09:48;11.60;99.90
2497;DHT22;1259;48.306;14.374;2023-08-08T00:12:16;11.60;99.90
2497;DHT22;1259;48.306;14.374;2023-08-08T00:14:43;11.60;99.90
2497;DHT22;1259;48.306;14.374;2023-08-08T00:17:10;11.60;99.90
2497;DHT22;1259;48.306;14.374;2023-08-08T00:19:36;11.60;99.90
2497;DHT22;1259;48.306;14.374;2023-08-08T00:22:03;11.70;99.90
2497;DHT22;1259;48.306;14.374;2023-08-08T00:24:30;11.70;99.90
2497;DHT22;1259;48.306;14.374;2023-08-08T00:26:56;11.80;99.90
2497;DHT22;1259;48.306;14.374;2023-08-08T00:29:25;11.70;99.90
2497;DHT22;1259;48.306;14.374;2023-08-08T00:31:51;11.70;99.90
2497;DHT22;1259;48.306;14.374;2023-08-08T00:34:18;11.60;99.90
2497;DHT22;1259;48.306;14.374;2023-08-08T00:36:45;11.60;99.90
2497;DHT22;1259;48.306;14.374;2023-08-08T00:39:11;11.50;99.90
2497;DHT22;1259;48.306;14.374;2023-08-08T00:41:38;11.60;99.90
2497;DHT22;1259;48.306;14.374;2023-08-08T00:44:05;11.60;99.90
2497;DHT22;1259;48.306;14.374;2023-08-08T00:46:33;11.50;99.90
2497;DHT22;1259;48.306;14.374;2023-08-08T00:48:59;11.60;99.90
2497;DHT22;1259;48.306;14.374;2023-08-08T00:51:26;11.50;99.90
2497;DHT22;1259;48.306;14.374;2023-08-08T00:53:54;11.50;99.90
2497;DHT22;1259;48.306;14.374;2023-08-08T00:56:20;11.40;99.90
2497;DHT22;1259;48.306;14.374;2023-08-08T00:58:47;11.40;99.90
2497;DHT22;1259;48.306;14.374;2023-08-08T01:01:15;11.50;99.90
2497;DHT22;1259;48.306;14.374;2023-08-08T01:03:44;11.40;99.90
2497;DHT22;1259;48.306;14.374;2023-08-08T01:06:13;11.50;99.90
2497;DHT22;1259;48.306;14.374;2023-08-08T01:08:43;11.50;99.90
2497;DHT22;1259;48.306;14.374;2023-08-08T01:11:12;11.50;99.90
2497;DHT22;1259;48.306;14.374;2023-08-08T01:13:39;11.60;99.90
2497;DHT22;1259;48.306;14.374;2023-08-08T01:16:06;11.60;99.90
2497;DHT22;1259;48.306;14.374;2023-08-08T01:18:33;11.60;99.90
2497;DHT22;1259;48.306;14.374;2023-08-08T01:21:02;11.60;99.90
2497;DHT22;1259;48.306;14.374;2023-08-08T01:23:30;11.50;99.90
2497;DHT22;1259;48.306;14.374;2023-08-08T01:26:00;11.50;99.90
2497;DHT22;1259;48.306;14.374;2023-08-08T01:28:27;11.50;99.90
2497;DHT22;1259;48.306;14.374;2023-08-08T01:30:54;11.50;99.90
2497;DHT22;1259;48.306;14.374;2023-08-08T01:33:21;11.40;99.90
2497;DHT22;1259;48.306;14.374;2023-08-08T01:35:50;11.40;99.90
2497;DHT22;1259;48.306;14.374;2023-08-08T01:38:19;11.40;99.90
2497;DHT22;1259;48.306;14.374;2023-08-08T01:40:46;11.40;99.90
2497;DHT22;1259;48.306;14.374;2023-08-08T01:43:15;11.40;99.90
2497;DHT22;1259;48.306;14.374;2023-08-08T01:45:42;11.40;99.90
2497;DHT22;1259;48.306;14.374;2023-08-08T01:48:10;11.40;99.90
2497;DHT22;1259;48.306;14.374;2023-08-08T01:50:37;11.50;99.90
2497;DHT22;1259;48.306;14.374;2023-08-08T01:53:04;11.40;99.90
2497;DHT22;1259;48.306;14.374;2023-08-08T01:55:30;11.50;99.90
2497;DHT22;1259;48.306;14.374;2023-08-08T01:57:57;11.40;99.90
2497;DHT22;1259;48.306;14.374;2023-08-08T02:00:25;11.30;99.90
2497;DHT22;1259;48.306;14.374;2023-08-08T02:02:52;11.30;99.90
2497;DHT22;1259;48.306;14.374;2023-08-08T02:05:19;11.20;99.90
2497;DHT22;1259;48.306;14.374;2023-08-08T02:07:45;11.20;99.90
2497;DHT22;1259;48.306;14.374;2023-08-08T02:10:12;11.20;99.90
2497;DHT22;1259;48.306;14.374;2023-08-08T02:12:39;11.20;99.90
2497;DHT22;1259;48.306;14.374;2023-08-08T02:15:06;11.10;99.90
2497;DHT22;1259;48.306;14.374;2023-08-08T02:17:34;11.10;99.90
2497;DHT22;1259;48.306;14.374;2023-08-08T02:20:00;11.20;99.90
2497;DHT22;1259;48.306;14.374;2023-08-08T02:22:28;11.20;99.90
2497;DHT22;1259;48.306;14.374;2023-08-08T02:24:55;11.20;99.90
2497;DHT22;1259;48.306;14.374;2023-08-08T02:27:22;11.20;99.90
2497;DHT22;1259;48.306;14.374;2023-08-08T02:29:48;11.20;99.90
2497;DHT22;1259;48.306;14.374;2023-08-08T02:32:15;11.20;99.90
2497;DHT22;1259;48.306;14.374;2023-08-08T02:34:43;11.20;99.90
2497;DHT22;1259;48.306;14.374;2023-08-08T02:37:10;11.20;99.90
2497;DHT22;1259;48.306;14.374;2023-08-08T02:39:36;11.20;99.90
2497;DHT22;1259;48.306;14.374;2023-08-08T02:42:03;11.20;99.90
2497;DHT22;1259;48.306;14.374;2023-08-08T02:44:30;11.20;99.90
2497;DHT22;1259;48.306;14.374;2023-08-08T02:46:57;11.20;99.90
2497;DHT22;1259;48.306;14.374;2023-08-08T02:49:23;11.20;99.90
2497;DHT22;1259;48.306;14.374;2023-08-08T02:51:55;11.20;99.90
2497;DHT22;1259;48.306;14.374;2023-08-08T02:54:22;11.20;99.90
2497;DHT22;1259;48.306;14.374;2023-08-08T02:56:48;11.30;99.90
2497;DHT22;1259;48.306;14.374;2023-08-08T02:59:15;11.20;99.90
2497;DHT22;1259;48.306;14.374;2023-08-08T03:01:42;11.20;99.90
2497;DHT22;1259;48.306;14.374;2023-08-08T03:04:09;11.20;99.90
2497;DHT22;1259;48.306;14.374;2023-08-08T03:06:36;11.20;99.90
2497;DHT22;1259;48.306;14.374;2023-08-08T03:09:04;11.30;99.90
2497;DHT22;1259;48.306;14.374;2023-08-08T03:11:30;11.30;99.90
2497;DHT22;1259;48.306;14.374;2023-08-08T03:13:57;11.30;99.90
2497;DHT22;1259;48.306;14.374;2023-08-08T03:16:24;11.20;99.90
2497;DHT22;1259;48.306;14.374;2023-08-08T03:18:50;11.20;99.90
2497;DHT22;1259;48.306;14.374;2023-08-08T03:21:17;11.20;99.90
2497;DHT22;1259;48.306;14.374;2023-08-08T03:23:44;11.20;99.90
2497;DHT22;1259;48.306;14.374;2023-08-08T03:26:12;11.20;99.90
2497;DHT22;1259;48.306;14.374;2023-08-08T03:28:38;11.10;99.90
2497;DHT22;1259;48.306;14.374;2023-08-08T03:31:05;11.10;99.90
2497;DHT22;1259;48.306;14.374;2023-08-08T03:33:32;11.10;99.90
2497;DHT22;1259;48.306;14.374;2023-08-08T03:35:59;11.00;99.90
2497;DHT22;1259;48.306;14.374;2023-08-08T03:38:26;11.00;99.90
2497;DHT22;1259;48.306;14.374;2023-08-08T03:40:52;11.00;99.90
2497;DHT22;1259;48.306;14.374;2023-08-08T03:43:20;11.10;99.90
2497;DHT22;1259;48.306;14.374;2023-08-08T03:45:47;11.00;99.90
2497;DHT22;1259;48.306;14.374;2023-08-08T03:48:14;11.00;99.90
2497;DHT22;1259;48.306;14.374;2023-08-08T03:50:41;10.90;99.90
2497;DHT22;1259;48.306;14.374;2023-08-08T03:53:07;11.00;99.90
2497;DHT22;1259;48.306;14.374;2023-08-08T03:55:34;11.00;99.90
2497;DHT22;1259;48.306;14.374;2023-08-08T03:58:01;11.10;99.90
2497;DHT22;1259;48.306;14.374;2023-08-08T04:00:29;11.10;99.90
2497;DHT22;1259;48.306;14.374;2023-08-08T04:02:55;11.10;99.90
2497;DHT22;1259;48.306;14.374;2023-08-08T04:05:22;11.10;99.90
2497;DHT22;1259;48.306;14.374;2023-08-08T04:07:49;11.10;99.90
2497;DHT22;1259;48.306;14.374;2023-08-08T04:10:15;11.10;99.90
2497;DHT22;1259;48.306;14.374;2023-08-08T04:12:42;11.10;99.90
2497;DHT22;1259;48.306;14.374;2023-08-08T04:15:09;11.10;99.90
2497;DHT22;1259;48.306;14.374;2023-08-08T04:17:37;11.00;99.90
2497;DHT22;1259;48.306;14.374;2023-08-08T04:20:04;11.00;99.90
2497;DHT22;1259;48.306;14.374;2023-08-08T04:22:32;11.00;99.90
2497;DHT22;1259;48.306;14.374;2023-08-08T04:24:58;11.00;99.90
2497;DHT22;1259;48.306;14.374;2023-08-08T04:27:25;11.10;99.90
2497;DHT22;1259;48.306;14.374;2023-08-08T04:29:52;11.00;99.90
2497;DHT22;1259;48.306;14.374;2023-08-08T04:32:18;11.10;99.90
2497;DHT22;1259;48.306;14.374;2023-08-08T04:34:48;11.20;99.90
2497;DHT22;1259;48.306;14.374;2023-08-08T04:37:14;11.20;99.90
2497;DHT22;1259;48.306;14.374;2023-08-08T04:39:41;11.20;99.90
2497;DHT22;1259;48.306;14.374;2023-08-08T04:42:08;11.20;99.90
2497;DHT22;1259;48.306;14.374;2023-08-08T04:44:34;11.30;99.90
2497;DHT22;1259;48.306;14.374;2023-08-08T04:47:01;11.30;99.90
2497;DHT22;1259;48.306;14.374;2023-08-08T04:49:28;11.40;99.90
2497;DHT22;1259;48.306;14.374;2023-08-08T04:51:56;11.40;99.90
2497;DHT22;1259;48.306;14.374;2023-08-08T04:54:23;11.50;99.90
2497;DHT22;1259;48.306;14.374;2023-08-08T04:56:49;11.60;99.90
2497;DHT22;1259;48.306;14.374;2023-08-08T04:59:16;11.60;99.90
2497;DHT22;1259;48.306;14.374;2023-08-08T05:01:43;11.70;99.90
2497;DHT22;1259;48.306;14.374;2023-08-08T05:04:09;11.60;99.90
2497;DHT22;1259;48.306;14.374;2023-08-08T05:06:36;11.60;99.90
2497;DHT22;1259;48.306;14.374;2023-08-08T05:09:04;11.70;99.90
2497;DHT22;1259;48.306;14.374;2023-08-08T05:11:34;11.70;99.90
2497;DHT22;1259;48.306;14.374;2023-08-08T05:14:01;11.70;99.90
2497;DHT22;1259;48.306;14.374;2023-08-08T05:16:27;11.70;99.90
2497;DHT22;1259;48.306;14.374;2023-08-08T05:18:54;11.80;99.90
2497;DHT22;1259;48.306;14.374;2023-08-08T05:21:21;11.80;99.90
2497;DHT22;1259;48.306;14.374;2023-08-08T05:23:48;11.90;99.90
2497;DHT22;1259;48.306;14.374;2023-08-08T05:26:16;11.90;99.90
2497;DHT22;1259;48.306;14.374;2023-08-08T05:28:43;12.00;99.90
2497;DHT22;1259;48.306;14.374;2023-08-08T05:31:10;12.00;99.90
2497;DHT22;1259;48.306;14.374;2023-08-08T05:33:36;12.00;99.90
2497;DHT22;1259;48.306;14.374;2023-08-08T05:36:03;12.10;99.90
2497;DHT22;1259;48.306;14.374;2023-08-08T05:38:30;12.10;99.90
2497;DHT22;1259;48.306;14.374;2023-08-08T05:40:57;12.10;99.90
2497;DHT22;1259;48.306;14.374;2023-08-08T05:43:25;12.10;99.90
2497;DHT22;1259;48.306;14.374;2023-08-08T05:45:53;12.10;99.90
2497;DHT22;1259;48.306;14.374;2023-08-08T05:48:19;12.20;99.90
2497;DHT22;1259;48.306;14.374;2023-08-08T05:50:46;12.30;99.90
2497;DHT22;1259;48.306;14.374;2023-08-08T05:53:13;12.30;99.90
2497;DHT22;1259;48.306;14.374;2023-08-08T05:55:40;12.40;99.90
2497;DHT22;1259;48.306;14.374;2023-08-08T05:58:07;12.40;99.90
2497;DHT22;1259;48.306;14.374;2023-08-08T06:00:35;12.50;99.90
2497;DHT22;1259;48.306;14.374;2023-08-08T06:03:02;12.60;99.90
2497;DHT22;1259;48.306;14.374;2023-08-08T06:05:28;12.60;99.90
2497;DHT22;1259;48.306;14.374;2023-08-08T06:07:55;12.60;99.90
2497;DHT22;1259;48.306;14.374;2023-08-08T06:10:22;12.70;99.90
2497;DHT22;1259;48.306;14.374;2023-08-08T06:12:50;12.70;99.90
2497;DHT22;1259;48.306;14.374;2023-08-08T06:15:17;12.70;99.90
2497;DHT22;1259;48.306;14.374;2023-08-08T06:17:45;12.80;99.90
2497;DHT22;1259;48.306;14.374;2023-08-08T06:20:12;12.90;99.90
2497;DHT22;1259;48.306;14.374;2023-08-08T06:22:39;12.80;99.90
2497;DHT22;1259;48.306;14.374;2023-08-08T06:25:06;12.90;99.90
2497;DHT22;1259;48.306;14.374;2023-08-08T06:27:32;12.90;99.90
2497;DHT22;1259;48.306;14.374;2023-08-08T06:29:59;13.10;99.90
2497;DHT22;1259;48.306;14.374;2023-08-08T06:32:26;13.20;99.90
2497;DHT22;1259;48.306;14.374;2023-08-08T06:34:54;13.30;99.90
2497;DHT22;1259;48.306;14.374;2023-08-08T06:37:21;13.40;99.90
2497;DHT22;1259;48.306;14.374;2023-08-08T06:39:48;13.40;99.90
2497;DHT22;1259;48.306;14.374;2023-08-08T06:42:14;13.50;99.90
2497;DHT22;1259;48.306;14.374;2023-08-08T06:44:41;13.50;99.90
2497;DHT22;1259;48.306;14.374;2023-08-08T06:47:08;13.70;99.90
2497;DHT22;1259;48.306;14.374;2023-08-08T06:49:35;13.90;99.90
2497;DHT22;1259;48.306;14.374;2023-08-08T06:52:03;13.90;99.90
2497;DHT22;1259;48.306;14.374;2023-08-08T06:54:30;13.90;99.90
2497;DHT22;1259;48.306;14.374;2023-08-08T06:56:57;13.80;99.90
2497;DHT22;1259;48.306;14.374;2023-08-08T06:59:24;14.00;99.90
2497;DHT22;1259;48.306;14.374;2023-08-08T07:01:50;14.00;99.90
2497;DHT22;1259;48.306;14.374;2023-08-08T07:04:17;14.10;99.90
2497;DHT22;1259;48.306;14.374;2023-08-08T07:06:44;14.00;99.90
2497;DHT22;1259;48.306;14.374;2023-08-08T07:09:12;14.00;99.90
2497;DHT22;1259;48.306;14.374;2023-08-08T07:11:40;14.00;99.90
2497;DHT22;1259;48.306;14.374;2023-08-08T07:14:06;14.20;99.90
2497;DHT22;1259;48.306;14.374;2023-08-08T07:16:33;14.20;99.90
2497;DHT22;1259;48.306;14.374;2023-08-08T07:19:00;14.40;99.90
2497;DHT22;1259;48.306;14.374;2023-08-08T07:21:27;14.90;99.90
2497;DHT22;1259;48.306;14.374;2023-08-08T07:23:54;15.10;99.90
2497;DHT22;1259;48.306;14.374;2023-08-08T07:26:24;15.20;99.90
2497;DHT22;1259;48.306;14.374;2023-08-08T07:28:50;15.30;99.90
2497;DHT22;1259;48.306;14.374;2023-08-08T07:31:17;15.30;99.90
2497;DHT22;1259;48.306;14.374;2023-08-08T07:33:44;15.30;99.90
2497;DHT22;1259;48.306;14.374;2023-08-08T07:36:10;15.30;99.90
2497;DHT22;1259;48.306;14.374;2023-08-08T07:38:37;15.60;99.90
2497;DHT22;1259;48.306;14.374;2023-08-08T07:41:04;15.60;99.90
2497;DHT22;1259;48.306;14.374;2023-08-08T07:43:32;15.50;99.90
2497;DHT22;1259;48.306;14.374;2023-08-08T07:45:59;15.80;99.90
2497;DHT22;1259;48.306;14.374;2023-08-08T07:48:25;15.70;99.90
2497;DHT22;1259;48.306;14.374;2023-08-08T07:50:52;15.70;99.90
2497;DHT22;1259;48.306;14.374;2023-08-08T07:53:19;15.70;99.90
2497;DHT22;1259;48.306;14.374;2023-08-08T07:55:45;15.90;99.90
2497;DHT22;1259;48.306;14.374;2023-08-08T07:58:12;16.10;99.90
2497;DHT22;1259;48.306;14.374;2023-08-08T08:00:40;16.20;99.90
2497;DHT22;1259;48.306;14.374;2023-08-08T08:03:07;16.50;99.90
2497;DHT22;1259;48.306;14.374;2023-08-08T08:05:34;16.70;99.90
2497;DHT22;1259;48.306;14.374;2023-08-08T08:08:01;16.50;99.90
2497;DHT22;1259;48.306;14.374;2023-08-08T08:10:28;16.60;99.90
2497;DHT22;1259;48.306;14.374;2023-08-08T08:12:54;16.90;99.90
2497;DHT22;1259;48.306;14.374;2023-08-08T08:15:23;17.10;99.90
2497;DHT22;1259;48.306;14.374;2023-08-08T08:17:51;17.00;99.90
2497;DHT22;1259;48.306;14.374;2023-08-08T08:20:18;17.10;99.90
2497;DHT22;1259;48.306;14.374;2023-08-08T08:22:45;17.10;99.90
2497;DHT22;1259;48.306;14.374;2023-08-08T08:25:12;17.10;99.90
2497;DHT22;1259;48.306;14.374;2023-08-08T08:27:39;17.30;99.90
2497;DHT22;1259;48.306;14.374;2023-08-08T08:30:06;17.50;99.90
2497;DHT22;1259;48.306;14.374;2023-08-08T08:32:34;17.10;99.90
2497;DHT22;1259;48.306;14.374;2023-08-08T08:35:03;17.40;99.90
2497;DHT22;1259;48.306;14.374;2023-08-08T08:37:31;17.60;99.90
2497;DHT22;1259;48.306;14.374;2023-08-08T08:39:58;17.90;99.90
2497;DHT22;1259;48.306;14.374;2023-08-08T08:42:25;18.00;99.90
2497;DHT22;1259;48.306;14.374;2023-08-08T08:44:52;17.60;99.90
2497;DHT22;1259;48.306;14.374;2023-08-08T08:47:21;17.60;99.90
2497;DHT22;1259;48.306;14.374;2023-08-08T08:49:47;18.00;99.90
2497;DHT22;1259;48.306;14.374;2023-08-08T08:52:16;18.00;99.90
2497;DHT22;1259;48.306;14.374;2023-08-08T08:54:43;17.90;99.90
2497;DHT22;1259;48.306;14.374;2023-08-08T08:57:10;17.90;99.90
2497;DHT22;1259;48.306;14.374;2023-08-08T08:59:37;18.20;99.90
2497;DHT22;1259;48.306;14.374;2023-08-08T09:02:03;18.40;99.90
2497;DHT22;1259;48.306;14.374;2023-08-08T09:04:30;18.30;99.90
2497;DHT22;1259;48.306;14.374;2023-08-08T09:06:57;18.20;99.90
2497;DHT22;1259;48.306;14.374;2023-08-08T09:09:26;18.20;99.90
2497;DHT22;1259;48.306;14.374;2023-08-08T09:11:54;18.20;99.90
2497;DHT22;1259;48.306;14.374;2023-08-08T09:14:21;18.20;99.90
2497;DHT22;1259;48.306;14.374;2023-08-08T09:16:48;18.20;99.90
2497;DHT22;1259;48.306;14.374;2023-08-08T09:19:17;18.30;99.90
2497;DHT22;1259;48.306;14.374;2023-08-08T09:21:44;18.70;99.90
2497;DHT22;1259;48.306;14.374;2023-08-08T09:24:10;18.60;99.90
2497;DHT22;1259;48.306;14.374;2023-08-08T09:26:40;18.40;99.90
2497;DHT22;1259;48.306;14.374;2023-08-08T09:29:07;18.30;99.90
2497;DHT22;1259;48.306;14.374;2023-08-08T09:31:34;18.30;99.90
2497;DHT22;1259;48.306;14.374;2023-08-08T09:34:01;18.50;99.90
2497;DHT22;1259;48.306;14.374;2023-08-08T09:36:28;18.40;99.90
2497;DHT22;1259;48.306;14.374;2023-08-08T09:38:55;18.50;99.90
2497;DHT22;1259;48.306;14.374;2023-08-08T09:41:22;18.90;99.90
2497;DHT22;1259;48.306;14.374;2023-08-08T09:43:51;19.00;99.90
2497;DHT22;1259;48.306;14.374;2023-08-08T09:46:18;18.90;99.90
2497;DHT22;1259;48.306;14.374;2023-08-08T09:48:45;19.30;99.90
2497;DHT22;1259;48.306;14.374;2023-08-08T09:51:12;19.20;99.90
2497;DHT22;1259;48.306;14.374;2023-08-08T09:53:38;19.20;99.90
2497;DHT22;1259;48.306;14.374;2023-08-08T09:56:06;19.20;99.90
2497;DHT22;1259;48.306;14.374;2023-08-08T09:58:33;19.40;99.90
2497;DHT22;1259;48.306;14.374;2023-08-08T10:01:01;19.40;99.90
2497;DHT22;1259;48.306;14.374;2023-08-08T10:03:30;19.10;99.90
2497;DHT22;1259;48.306;14.374;2023-08-08T10:05:57;19.30;99.90
2497;DHT22;1259;48.306;14.374;2023-08-08T10:08:24;18.90;99.90
2497;DHT22;1259;48.306;14.374;2023-08-08T10:10:51;18.90;99.90
2497;DHT22;1259;48.306;14.374;2023-08-08T10:13:21;19.00;99.90
2497;DHT22;1259;48.306;14.374;2023-08-08T10:15:48;19.20;99.90
2497;DHT22;1259;48.306;14.374;2023-08-08T10:18:16;19.30;99.90
2497;DHT22;1259;48.306;14.374;2023-08-08T10:20:42;19.20;99.90
2497;DHT22;1259;48.306;14.374;2023-08-08T10:23:09;19.10;99.90
2497;DHT22;1259;48.306;14.374;2023-08-08T10:25:36;19.30;99.90
2497;DHT22;1259;48.306;14.374;2023-08-08T10:28:03;19.40;99.90
2497;DHT22;1259;48.306;14.374;2023-08-08T10:30:41;19.60;99.90
2497;DHT22;1259;48.306;14.374;2023-08-08T10:33:16;19.20;99.90
2497;DHT22;1259;48.306;14.374;2023-08-08T10:35:50;19.10;99.90
2497;DHT22;1259;48.306;14.374;2023-08-08T10:38:17;19.10;99.90
2497;DHT22;1259;48.306;14.374;2023-08-08T10:40:44;19.10;99.90
2497;DHT22;1259;48.306;14.374;2023-08-08T10:43:11;19.30;99.90
2497;DHT22;1259;48.306;14.374;2023-08-08T10:45:40;19.40;99.90
2497;DHT22;1259;48.306;14.374;2023-08-08T10:48:08;19.30;99.90
2497;DHT22;1259;48.306;14.374;2023-08-08T10:50:38;19.60;99.90
2497;DHT22;1259;48.306;14.374;2023-08-08T10:53:08;19.80;99.90
2497;DHT22;1259;48.306;14.374;2023-08-08T10:55:35;19.80;99.90
2497;DHT22;1259;48.306;14.374;2023-08-08T10:58:04;19.90;99.90
2497;DHT22;1259;48.306;14.374;2023-08-08T11:00:32;19.60;99.90
2497;DHT22;1259;48.306;14.374;2023-08-08T11:02:59;19.80;99.90
2497;DHT22;1259;48.306;14.374;2023-08-08T11:05:28;19.80;99.90
2497;DHT22;1259;48.306;14.374;2023-08-08T11:07:56;19.80;99.90
2497;DHT22;1259;48.306;14.374;2023-08-08T11:10:22;19.80;99.90
2497;DHT22;1259;48.306;14.374;2023-08-08T11:12:56;19.90;99.90
2497;DHT22;1259;48.306;14.374;2023-08-08T11:15:23;20.10;99.90
2497;DHT22;1259;48.306;14.374;2023-08-08T11:17:51;20.00;99.90
2497;DHT22;1259;48.306;14.374;2023-08-08T11:20:18;20.00;99.90
2497;DHT22;1259;48.306;14.374;2023-08-08T11:22:44;19.80;99.90
2497;DHT22;1259;48.306;14.374;2023-08-08T11:25:15;19.90;99.90
2497;DHT22;1259;48.306;14.374;2023-08-08T11:27:47;20.00;99.90
2497;DHT22;1259;48.306;14.374;2023-08-08T11:30:14;20.20;99.80
2497;DHT22;1259;48.306;14.374;2023-08-08T11:32:41;20.20;99.90
2497;DHT22;1259;48.306;14.374;2023-08-08T11:35:08;20.50;99.90
2497;DHT22;1259;48.306;14.374;2023-08-08T11:37:35;20.60;99.90
2497;DHT22;1259;48.306;14.374;2023-08-08T11:40:03;20.60;99.60
2497;DHT22;1259;48.306;14.374;2023-08-08T11:42:32;20.60;98.30
2497;DHT22;1259;48.306;14.374;2023-08-08T11:44:59;20.40;95.50
2497;DHT22;1259;48.306;14.374;2023-08-08T11:47:25;20.90;98.00
2497;DHT22;1259;48.306;14.374;2023-08-08T11:49:52;20.70;96.70
2497;DHT22;1259;48.306;14.374;2023-08-08T11:52:19;20.50;96.70
2497;DHT22;1259;48.306;14.374;2023-08-08T11:54:50;20.50;96.10
2497;DHT22;1259;48.306;14.374;2023-08-08T11:57:17;20.60;95.90
2497;DHT22;1259;48.306;14.374;2023-08-08T11:59:45;20.80;98.00
2497;DHT22;1259;48.306;14.374;2023-08-08T12:02:14;20.70;97.50
2497;DHT22;1259;48.306;14.374;2023-08-08T12:04:43;20.50;99.00
2497;DHT22;1259;48.306;14.374;2023-08-08T12:07:10;20.30;96.90
2497;DHT22;1259;48.306;14.374;2023-08-08T12:09:36;20.40;98.80
2497;DHT22;1259;48.306;14.374;2023-08-08T12:12:03;20.30;98.30
2497;DHT22;1259;48.306;14.374;2023-08-08T12:14:33;20.20;97.20
2497;DHT22;1259;48.306;14.374;2023-08-08T12:17:03;20.20;97.40
2497;DHT22;1259;48.306;14.374;2023-08-08T12:19:30;20.20;97.40
2497;DHT22;1259;48.306;14.374;2023-08-08T12:21:57;20.10;95.10
2497;DHT22;1259;48.306;14.374;2023-08-08T12:24:23;20.10;95.60
2497;DHT22;1259;48.306;14.374;2023-08-08T12:26:50;20.10;96.20
2497;DHT22;1259;48.306;14.374;2023-08-08T12:29:17;20.20;95.40
2497;DHT22;1259;48.306;14.374;2023-08-08T12:31:43;20.00;94.60
2497;DHT22;1259;48.306;14.374;2023-08-08T12:34:11;20.00;96.30
2497;DHT22;1259;48.306;14.374;2023-08-08T12:36:38;20.00;96.40
2497;DHT22;1259;48.306;14.374;2023-08-08T12:39:05;20.00;95.50
2497;DHT22;1259;48.306;14.374;2023-08-08T12:41:32;20.20;96.80
2497;DHT22;1259;48.306;14.374;2023-08-08T12:43:59;20.40;95.60
2497;DHT22;1259;48.306;14.374;2023-08-08T12:46:25;20.40;94.70
2497;DHT22;1259;48.306;14.374;2023-08-08T12:48:52;20.60;94.60
2497;DHT22;1259;48.306;14.374;2023-08-08T12:51:20;20.70;95.70
2497;DHT22;1259;48.306;14.374;2023-08-08T12:53:47;20.80;95.50
2497;DHT22;1259;48.306;14.374;2023-08-08T12:56:14;20.80;93.00
2497;DHT22;1259;48.306;14.374;2023-08-08T12:58:40;20.70;93.30
2497;DHT22;1259;48.306;14.374;2023-08-08T13:01:07;20.60;91.50
2497;DHT22;1259;48.306;14.374;2023-08-08T13:03:34;20.70;93.40
2497;DHT22;1259;48.306;14.374;2023-08-08T13:06:00;20.80;94.60
2497;DHT22;1259;48.306;14.374;2023-08-08T13:08:28;21.00;92.40
2497;DHT22;1259;48.306;14.374;2023-08-08T13:10:55;20.90;91.30
2497;DHT22;1259;48.306;14.374;2023-08-08T13:13:22;20.70;90.90
2497;DHT22;1259;48.306;14.374;2023-08-08T13:15:51;20.70;92.00
2497;DHT22;1259;48.306;14.374;2023-08-08T13:18:17;20.70;92.00
2497;DHT22;1259;48.306;14.374;2023-08-08T13:20:44;20.50;90.90
2497;DHT22;1259;48.306;14.374;2023-08-08T13:23:11;20.60;92.20
2497;DHT22;1259;48.306;14.374;2023-08-08T13:25:39;20.60;92.30
2497;DHT22;1259;48.306;14.374;2023-08-08T13:28:06;20.80;92.40
2497;DHT22;1259;48.306;14.374;2023-08-08T13:30:33;20.90;92.80
2497;DHT22;1259;48.306;14.374;2023-08-08T13:33:00;20.90;91.60
2497;DHT22;1259;48.306;14.374;2023-08-08T13:35:27;20.80;90.90
2497;DHT22;1259;48.306;14.374;2023-08-08T13:37:53;21.00;90.50
2497;DHT22;1259;48.306;14.374;2023-08-08T13:40:20;21.00;90.30
2497;DHT22;1259;48.306;14.374;2023-08-08T13:42:48;21.00;90.10
2497;DHT22;1259;48.306;14.374;2023-08-08T13:45:15;21.00;89.80
2497;DHT22;1259;48.306;14.374;2023-08-08T13:47:42;21.00;88.60
2497;DHT22;1259;48.306;14.374;2023-08-08T13:50:09;21.00;89.50
2497;DHT22;1259;48.306;14.374;2023-08-08T13:52:36;21.00;88.90
2497;DHT22;1259;48.306;14.374;2023-08-08T13:55:02;21.00;89.90
2497;DHT22;1259;48.306;14.374;2023-08-08T13:57:29;21.10;89.80
2497;DHT22;1259;48.306;14.374;2023-08-08T13:59:57;21.10;89.20
2497;DHT22;1259;48.306;14.374;2023-08-08T14:02:24;21.00;87.40
2497;DHT22;1259;48.306;14.374;2023-08-08T14:04:51;21.00;88.90
2497;DHT22;1259;48.306;14.374;2023-08-08T14:07:18;21.10;89.90
2497;DHT22;1259;48.306;14.374;2023-08-08T14:09:45;21.00;88.20
2497;DHT22;1259;48.306;14.374;2023-08-08T14:12:11;21.00;87.70
2497;DHT22;1259;48.306;14.374;2023-08-08T14:14:38;20.90;87.70
2497;DHT22;1259;48.306;14.374;2023-08-08T14:17:06;20.90;87.60
2497;DHT22;1259;48.306;14.374;2023-08-08T14:19:33;20.90;86.10
2497;DHT22;1259;48.306;14.374;2023-08-08T14:21:59;20.90;87.70
2497;DHT22;1259;48.306;14.374;2023-08-08T14:24:26;20.90;88.10
2497;DHT22;1259;48.306;14.374;2023-08-08T14:26:53;20.70;86.40
2497;DHT22;1259;48.306;14.374;2023-08-08T14:29:19;20.80;87.40
2497;DHT22;1259;48.306;14.374;2023-08-08T14:31:46;20.60;86.00
2497;DHT22;1259;48.306;14.374;2023-08-08T14:34:14;20.70;88.70
2497;DHT22;1259;48.306;14.374;2023-08-08T14:36:41;20.80;88.20
2497;DHT22;1259;48.306;14.374;2023-08-08T14:39:08;20.90;89.10
2497;DHT22;1259;48.306;14.374;2023-08-08T14:41:34;21.00;89.70
2497;DHT22;1259;48.306;14.374;2023-08-08T14:44:01;20.90;87.10
2497;DHT22;1259;48.306;14.374;2023-08-08T14:46:28;20.80;87.40
2497;DHT22;1259;48.306;14.374;2023-08-08T14:48:55;20.80;88.40
2497;DHT22;1259;48.306;14.374;2023-08-08T14:51:24;20.80;87.50
2497;DHT22;1259;48.306;14.374;2023-08-08T14:53:50;20.70;87.60
2497;DHT22;1259;48.306;14.374;2023-08-08T14:56:17;20.70;87.80
2497;DHT22;1259;48.306;14.374;2023-08-08T14:58:44;20.70;86.60
2497;DHT22;1259;48.306;14.374;2023-08-08T15:01:10;20.70;85.70
2497;DHT22;1259;48.306;14.374;2023-08-08T15:03:37;20.70;87.20
2497;DHT22;1259;48.306;14.374;2023-08-08T15:06:04;20.70;87.10
2497;DHT22;1259;48.306;14.374;2023-08-08T15:08:32;20.80;89.40
2497;DHT22;1259;48.306;14.374;2023-08-08T15:10:59;20.70;89.80
2497;DHT22;1259;48.306;14.374;2023-08-08T15:13:26;20.70;87.10
2497;DHT22;1259;48.306;14.374;2023-08-08T15:15:52;20.60;87.10
2497;DHT22;1259;48.306;14.374;2023-08-08T15:18:19;20.50;86.00
2497;DHT22;1259;48.306;14.374;2023-08-08T15:20:46;20.50;87.00
2497;DHT22;1259;48.306;14.374;2023-08-08T15:23:12;20.40;86.10
2497;DHT22;1259;48.306;14.374;2023-08-08T15:25:41;20.40;86.50
2497;DHT22;1259;48.306;14.374;2023-08-08T15:28:08;20.40;87.20
2497;DHT22;1259;48.306;14.374;2023-08-08T15:30:35;20.30;86.90
2497;DHT22;1259;48.306;14.374;2023-08-08T15:33:02;20.30;86.90
2497;DHT22;1259;48.306;14.374;2023-08-08T15:35:28;20.30;85.60
2497;DHT22;1259;48.306;14.374;2023-08-08T15:37:55;20.30;85.70
2497;DHT22;1259;48.306;14.374;2023-08-08T15:40:24;20.30;86.60
2497;DHT22;1259;48.306;14.374;2023-08-08T15:42:52;20.30;86.90